Time;durP1;ratioP1;P1;durP2;ratioP2;P2;SDS_P1;SDS_P2;PMS_P1;PMS_P2;Temp;Humidity;BMP_temperature;BMP_pressure;BME280_temperature;BME280_humidity;BME280_pressure;Samples;Min_cycle;Max_cycle;Signal;HPM_P1;HPM_P2
2024/02/11 00:01:28;;;;;;;;;;;;;;;;;;5047478;28;19933;-72
2024/02/11 00:03:55;;;;;;;;;;;;;;;;;;5049443;28;20015;-73
2024/02/11 00:06:24;;;;;;;;;;;;;;;;;;5048958;28;20030;-71
2024/02/11 00:08:51;;;;;;;;;;;;;;;;;;5049371;28;19924;-72
2024/02/11 00:11:18;;;;;;;;;;;;;;;;;;5052233;28;19929;-73
2024/02/11 00:13:45;;;;;;;;;;;;;;;;;;5049150;28;20300;-74
2024/02/11 00:16:13;;;;;;;;;;;;;;;;;;5050146;28;19952;-73
2024/02/11 00:18:41;;;;;;;;;;;;;;;;;;5049767;28;20025;-73
2024/02/11 00:21:08;;;;;;;;;;;;;;;;;;5052974;28;19929;-72
2024/02/11 00:23:36;;;;;;;;;;;;;;;;;;5050504;28;20082;-72
2024/02/11 00:26:03;;;;;;;;;;;;;;;;;;5048364;28;19929;-72
2024/02/11 00:28:30;;;;;;;;;;;;;;;;;;5050081;28;19968;-72
2024/02/11 00:30:57;;;;;;;;;;;;;;;;;;5051632;28;19932;-73
2024/02/11 00:33:24;;;;;;;;;;;;;;;;;;5046514;28;20023;-72
2024/02/11 00:35:51;;;;;;;;;;;;;;;;;;5047062;28;20378;-73
2024/02/11 00:38:19;;;;;;;;;;;;;;;;;;5048064;28;19929;-72
2024/02/11 00:40:46;;;;;;;;;;;;;;;;;;5048903;28;20332;-74
2024/02/11 00:43:15;;;;;;;;;;;;;;;;;;5048096;28;19929;-72
2024/02/11 00:45:42;;;;;;;;;;;;;;;;;;5046823;28;19929;-73
2024/02/11 00:48:10;;;;;;;;;;;;;;;;;;5048686;28;20022;-73
2024/02/11 00:50:37;;;;;;;;;;;;;;;;;;5047824;28;20411;-72
2024/02/11 00:53:06;;;;;;;;;;;;;;;;;;5046890;28;20045;-72
2024/02/11 00:55:33;;;;;;;;;;;;;;;;;;5048875;28;19929;-73
2024/02/11 00:58:00;;;;;;;;;;;;;;;;;;5048548;28;19929;-73
2024/02/11 01:00:27;;;;;;;;;;;;;;;;;;5048355;28;20775;-73
2024/02/11 01:02:54;;;;;;;;;;;;;;;;;;5047493;28;20029;-73
2024/02/11 01:05:22;;;;;;;;;;;;;;;;;;5048198;28;20447;-72
2024/02/11 01:07:50;;;;;;;;;;;;;;;;;;5047681;28;19928;-72
2024/02/11 01:10:17;;;;;;;;;;;;;;;;;;5049802;28;19974;-72
2024/02/11 01:12:44;;;;;;;;;;;;;;;;;;5047390;28;19979;-72
2024/02/11 01:15:12;;;;;;;;;;;;;;;;;;5046240;28;19929;-73
2024/02/11 01:17:40;;;;;;;;;;;;;;;;;;5047598;28;19983;-74
2024/02/11 01:20:08;;;;;;;;;;;;;;;;;;5040555;28;20308;-71
2024/02/11 01:22:35;;;;;;;;;;;;;;;;;;5041941;28;19930;-73
2024/02/11 01:25:02;;;;;;;;;;;;;;;;;;5038998;28;19929;-73
2024/02/11 01:27:29;;;;;;;;;;;;;;;;;;5046658;28;20403;-73
2024/02/11 01:29:56;;;;;;;;;;;;;;;;;;5045314;28;19935;-73
2024/02/11 01:32:24;;;;;;;;;;;;;;;;;;5040027;28;19928;-73
2024/02/11 01:34:51;;;;;;;;;;;;;;;;;;5047017;28;19929;-73
2024/02/11 01:37:18;;;;;;;;;;;;;;;;;;5044596;28;19928;-74
2024/02/11 01:39:45;;;;;;;;;;;;;;;;;;5047360;28;20464;-74
2024/02/11 01:42:12;;;;;;;;;;;;;;;;;;5045167;28;19933;-73
2024/02/11 01:44:39;;;;;;;;;;;;;;;;;;5048651;28;20262;-74
2024/02/11 01:47:06;;;;;;;;;;;;;;;;;;5049334;28;20365;-74
2024/02/11 01:49:33;;;;;;;;;;;;;;;;;;5053571;28;20032;-73
2024/02/11 01:52:00;;;;;;;;;;;;;;;;;;5051801;28;19997;-74
2024/02/11 01:54:27;;;;;;;;;;;;;;;;;;5047912;28;19988;-73
2024/02/11 01:56:54;;;;;;;;;;;;;;;;;;5041164;28;20015;-74
2024/02/11 01:59:22;;;;;;;;;;;;;;;;;;5050409;28;19936;-74
2024/02/11 02:01:49;;;;;;;;;;;;;;;;;;5050396;28;19928;-74
2024/02/11 02:04:16;;;;;;;;;;;;;;;;;;5047985;28;19976;-74
2024/02/11 02:06:43;;;;;;;;;;;;;;;;;;5048282;28;20360;-74
2024/02/11 02:09:11;;;;;;;;;;;;;;;;;;5048392;28;20376;-74
2024/02/11 02:11:38;;;;;;;;;;;;;;;;;;5046247;28;20293;-74
2024/02/11 02:14:05;;;;;;;;;;;;;;;;;;5041058;28;19928;-74
2024/02/11 02:16:33;;;;;;;;;;;;;;;;;;5042236;28;20023;-74
2024/02/11 02:19:00;;;;;;;;;;;;;;;;;;5058491;28;19928;-73
2024/02/11 02:21:27;;;;;;;;;;;;;;;;;;5049454;28;20461;-74
2024/02/11 02:23:54;;;;;;;;;;;;;;;;;;5051006;28;19951;-74
2024/02/11 02:26:21;;;;;;;;;;;;;;;;;;5047134;28;19928;-74
2024/02/11 02:28:48;;;;;;;;;;;;;;;;;;5049744;28;19932;-73
2024/02/11 02:31:15;;;;;;;;;;;;;;;;;;5053933;28;20463;-74
2024/02/11 02:33:44;;;;;;;;;;;;;;;;;;5047604;28;20020;-74
2024/02/11 02:36:11;;;;;;;;;;;;;;;;;;5049676;28;19983;-73
2024/02/11 02:38:38;;;;;;;;;;;;;;;;;;5048036;28;19963;-73
2024/02/11 02:41:05;;;;;;;;;;;;;;;;;;5047206;28;19976;-73
2024/02/11 02:43:32;;;;;;;;;;;;;;;;;;5046516;28;19980;-73
2024/02/11 02:46:00;;;;;;;;;;;;;;;;;;5048786;28;19932;-74
2024/02/11 02:48:28;;;;;;;;;;;;;;;;;;5039690;28;19929;-74
2024/02/11 02:50:57;;;;;;;;;;;;;;;;;;5049639;28;19928;-74
2024/02/11 02:53:24;;;;;;;;;;;;;;;;;;5041618;28;20039;-75
2024/02/11 02:55:51;;;;;;;;;;;;;;;;;;5048918;28;20400;-75
2024/02/11 02:58:18;;;;;;;;;;;;;;;;;;5048365;28;19929;-74
2024/02/11 03:00:46;;;;;;;;;;;;;;;;;;5048442;28;20044;-73
2024/02/11 03:03:13;;;;;;;;;;;;;;;;;;5048271;28;20450;-75
2024/02/11 03:05:40;;;;;;;;;;;;;;;;;;5053562;28;20022;-74
2024/02/11 03:08:07;;;;;;;;;;;;;;;;;;5050762;28;20364;-73
2024/02/11 03:10:34;;;;;;;;;;;;;;;;;;5049355;28;19982;-73
2024/02/11 03:13:01;;;;;;;;;;;;;;;;;;5049930;28;19971;-73
2024/02/11 03:15:28;;;;;;;;;;;;;;;;;;5045751;28;20288;-74
2024/02/11 03:17:55;;;;;;;;;;;;;;;;;;5044362;28;19974;-74
2024/02/11 03:20:22;;;;;;;;;;;;;;;;;;5038506;28;19933;-74
2024/02/11 03:22:52;;;;;;;;;;;;;;;;;;5051174;28;19982;-75
2024/02/11 03:25:19;;;;;;;;;;;;;;;;;;5046885;28;20474;-73
2024/02/11 03:27:47;;;;;;;;;;;;;;;;;;5047460;28;19952;-74
2024/02/11 03:30:15;;;;;;;;;;;;;;;;;;5048858;28;19929;-74
2024/02/11 03:32:43;;;;;;;;;;;;;;;;;;5048866;28;19976;-72
2024/02/11 03:35:10;;;;;;;;;;;;;;;;;;5048572;28;19935;-72
2024/02/11 03:37:37;;;;;;;;;;;;;;;;;;5050422;28;19929;-73
2024/02/11 03:40:09;;;;;;;;;;;;;;;;;;5048019;28;19974;-74
2024/02/11 03:42:36;;;;;;;;;;;;;;;;;;5047493;28;19928;-73
2024/02/11 03:45:03;;;;;;;;;;;;;;;;;;5049637;28;19932;-72
2024/02/11 03:47:30;;;;;;;;;;;;;;;;;;5049337;28;19959;-74
2024/02/11 03:49:57;;;;;;;;;;;;;;;;;;5048984;28;20020;-75
2024/02/11 03:52:24;;;;;;;;;;;;;;;;;;5048293;28;19929;-74
2024/02/11 03:54:51;;;;;;;;;;;;;;;;;;5048521;28;20380;-75
2024/02/11 03:57:18;;;;;;;;;;;;;;;;;;5048143;28;19960;-75
2024/02/11 03:59:46;;;;;;;;;;;;;;;;;;5048931;28;19932;-75
2024/02/11 04:02:13;;;;;;;;;;;;;;;;;;5049047;28;20360;-75
2024/02/11 04:04:40;;;;;;;;;;;;;;;;;;5049085;28;19982;-75
2024/02/11 04:07:10;;;;;;;;;;;;;;;;;;5048668;28;20032;-75
2024/02/11 04:09:39;;;;;;;;;;;;;;;;;;5046933;28;19971;-75
2024/02/11 04:12:07;;;;;;;;;;;;;;;;;;5048467;28;19964;-76
2024/02/11 04:14:34;;;;;;;;;;;;;;;;;;5048492;28;19964;-75
2024/02/11 04:17:02;;;;;;;;;;;;;;;;;;5049322;28;19982;-75
2024/02/11 04:19:32;;;;;;;;;;;;;;;;;;5048678;28;19929;-75
2024/02/11 04:21:59;;;;;;;;;;;;;;;;;;5048628;28;20413;-74
2024/02/11 04:24:28;;;;;;;;;;;;;;;;;;5048421;28;19929;-74
2024/02/11 04:26:55;;;;;;;;;;;;;;;;;;5044696;28;20437;-73
2024/02/11 04:29:23;;;;;;;;;;;;;;;;;;5047905;28;20396;-75
2024/02/11 04:31:51;;;;;;;;;;;;;;;;;;5049450;28;19928;-75
2024/02/11 04:34:21;;;;;;;;;;;;;;;;;;5049051;28;19940;-75
2024/02/11 04:36:48;;;;;;;;;;;;;;;;;;5048436;28;20307;-75
2024/02/11 04:39:15;;;;;;;;;;;;;;;;;;5048445;28;20027;-72
2024/02/11 04:41:42;;;;;;;;;;;;;;;;;;5048633;28;20602;-73
2024/02/11 04:44:09;;;;;;;;;;;;;;;;;;5042161;28;20012;-74
2024/02/11 04:46:38;;;;;;;;;;;;;;;;;;5046449;28;19972;-74
2024/02/11 04:49:05;;;;;;;;;;;;;;;;;;5049782;28;19975;-74
2024/02/11 04:51:32;;;;;;;;;;;;;;;;;;5052162;28;19937;-74
2024/02/11 04:53:59;;;;;;;;;;;;;;;;;;5048413;28;20027;-73
2024/02/11 04:56:27;;;;;;;;;;;;;;;;;;5048499;28;19983;-73
2024/02/11 04:58:54;;;;;;;;;;;;;;;;;;5051182;28;20312;-73
2024/02/11 05:01:23;;;;;;;;;;;;;;;;;;5046052;28;20027;-74
2024/02/11 05:03:51;;;;;;;;;;;;;;;;;;5047140;28;19951;-75
2024/02/11 05:06:23;;;;;;;;;;;;;;;;;;5048543;28;19928;-74
2024/02/11 05:08:50;;;;;;;;;;;;;;;;;;5049210;28;19929;-75
2024/02/11 05:11:17;;;;;;;;;;;;;;;;;;5045523;28;20023;-74
2024/02/11 05:13:44;;;;;;;;;;;;;;;;;;5051201;28;20457;-74
2024/02/11 05:16:14;;;;;;;;;;;;;;;;;;5052520;28;20346;-76
2024/02/11 05:18:42;;;;;;;;;;;;;;;;;;5041852;28;19980;-75
2024/02/11 05:21:09;;;;;;;;;;;;;;;;;;5054295;28;20304;-74
2024/02/11 05:23:36;;;;;;;;;;;;;;;;;;5052062;28;19928;-75
2024/02/11 05:26:05;;;;;;;;;;;;;;;;;;5052125;28;19983;-74
2024/02/11 05:28:34;;;;;;;;;;;;;;;;;;5047297;28;19933;-74
2024/02/11 05:31:01;;;;;;;;;;;;;;;;;;5051762;28;20311;-74
2024/02/11 05:33:28;;;;;;;;;;;;;;;;;;5051875;28;19936;-74
2024/02/11 05:35:55;;;;;;;;;;;;;;;;;;5051629;28;20011;-74
2024/02/11 05:38:24;;;;;;;;;;;;;;;;;;5051928;28;20280;-74
2024/02/11 05:40:56;;;;;;;;;;;;;;;;;;5053434;28;19968;-75
2024/02/11 05:43:24;;;;;;;;;;;;;;;;;;5051447;28;20234;-75
2024/02/11 05:45:51;;;;;;;;;;;;;;;;;;5051858;28;19960;-74
2024/02/11 05:48:18;;;;;;;;;;;;;;;;;;5051929;28;19928;-74
2024/02/11 05:50:45;;;;;;;;;;;;;;;;;;5051341;28;20031;-74
2024/02/11 05:53:12;;;;;;;;;;;;;;;;;;5049823;28;20398;-75
2024/02/11 05:55:39;;;;;;;;;;;;;;;;;;5051521;28;19929;-74
2024/02/11 05:58:06;;;;;;;;;;;;;;;;;;5051232;28;19929;-74
2024/02/11 06:00:36;;;;;;;;;;;;;;;;;;5051240;28;20376;-74
2024/02/11 06:03:03;;;;;;;;;;;;;;;;;;5050199;28;20446;-74
2024/02/11 06:05:30;;;;;;;;;;;;;;;;;;5051622;28;20020;-74
2024/02/11 06:07:59;;;;;;;;;;;;;;;;;;5050888;28;20032;-74
2024/02/11 06:10:26;;;;;;;;;;;;;;;;;;5054929;28;20379;-74
2024/02/11 06:12:53;;;;;;;;;;;;;;;;;;5050688;28;20019;-75
2024/02/11 06:15:21;;;;;;;;;;;;;;;;;;5050159;28;20027;-74
2024/02/11 06:17:48;;;;;;;;;;;;;;;;;;5049913;28;19971;-74
2024/02/11 06:20:15;;;;;;;;;;;;;;;;;;5050222;28;19928;-74
2024/02/11 06:22:43;;;;;;;;;;;;;;;;;;5055711;28;20024;-75
2024/02/11 06:25:11;;;;;;;;;;;;;;;;;;5051350;28;19943;-74
2024/02/11 06:27:38;;;;;;;;;;;;;;;;;;5050274;28;19987;-73
2024/02/11 06:30:08;;;;;;;;;;;;;;;;;;5050564;28;19928;-74
2024/02/11 06:32:36;;;;;;;;;;;;;;;;;;5051011;28;20015;-75
2024/02/11 06:35:03;;;;;;;;;;;;;;;;;;5050740;28;19935;-72
2024/02/11 06:37:31;;;;;;;;;;;;;;;;;;5042110;28;19933;-75
2024/02/11 06:39:59;;;;;;;;;;;;;;;;;;5050510;28;19928;-76
2024/02/11 06:42:30;;;;;;;;;;;;;;;;;;5049131;28;19928;-74
2024/02/11 06:44:58;;;;;;;;;;;;;;;;;;5049856;28;19935;-76
2024/02/11 06:47:25;;;;;;;;;;;;;;;;;;5050514;28;19982;-74
2024/02/11 06:49:53;;;;;;;;;;;;;;;;;;5050493;28;19982;-74
2024/02/11 06:52:20;;;;;;;;;;;;;;;;;;5056734;28;19933;-72
2024/02/11 06:54:49;;;;;;;;;;;;;;;;;;5048047;28;20011;-73
2024/02/11 06:57:16;;;;;;;;;;;;;;;;;;5048971;28;20494;-74
2024/02/11 06:59:43;;;;;;;;;;;;;;;;;;5049989;28;19944;-76
2024/02/11 07:02:10;;;;;;;;;;;;;;;;;;5048281;28;19933;-76
2024/02/11 07:04:37;;;;;;;;;;;;;;;;;;5051513;28;20307;-77
2024/02/11 07:07:04;;;;;;;;;;;;;;;;;;5049895;28;19935;-76
2024/02/11 07:09:31;;;;;;;;;;;;;;;;;;5053650;28;19935;-76
2024/02/11 07:11:58;;;;;;;;;;;;;;;;;;5050150;28;20037;-76
2024/02/11 07:14:25;;;;;;;;;;;;;;;;;;5049964;28;19939;-76
2024/02/11 07:16:53;;;;;;;;;;;;;;;;;;5049319;28;20396;-75
2024/02/11 07:19:24;;;;;;;;;;;;;;;;;;5056110;28;19933;-76
2024/02/11 07:21:52;;;;;;;;;;;;;;;;;;5049687;28;19928;-76
2024/02/11 07:24:19;;;;;;;;;;;;;;;;;;5048465;28;19935;-75
2024/02/11 07:26:46;;;;;;;;;;;;;;;;;;5049461;28;20019;-75
2024/02/11 07:29:13;;;;;;;;;;;;;;;;;;5048268;28;20031;-74
2024/02/11 07:31:40;;;;;;;;;;;;;;;;;;5049415;28;19935;-72
2024/02/11 07:34:07;;;;;;;;;;;;;;;;;;5049149;28;19929;-72
2024/02/11 07:36:34;;;;;;;;;;;;;;;;;;5048847;28;19928;-72
2024/02/11 07:39:01;;;;;;;;;;;;;;;;;;5047638;28;19929;-74
2024/02/11 07:41:28;;;;;;;;;;;;;;;;;;5049340;28;20020;-74
2024/02/11 07:43:55;;;;;;;;;;;;;;;;;;5049491;28;19935;-74
2024/02/11 07:46:22;;;;;;;;;;;;;;;;;;5054494;28;19935;-74
2024/02/11 07:48:50;;;;;;;;;;;;;;;;;;5049521;28;19928;-74
2024/02/11 07:51:18;;;;;;;;;;;;;;;;;;5047781;28;19929;-75
2024/02/11 07:53:45;;;;;;;;;;;;;;;;;;5049725;28;19929;-75
2024/02/11 07:56:14;;;;;;;;;;;;;;;;;;5048220;28;19975;-74
2024/02/11 07:58:41;;;;;;;;;;;;;;;;;;5049785;28;19933;-74
2024/02/11 08:01:08;;;;;;;;;;;;;;;;;;5047961;28;20051;-75
2024/02/11 08:03:35;;;;;;;;;;;;;;;;;;5049790;28;19936;-75
2024/02/11 08:06:02;;;;;;;;;;;;;;;;;;5047276;28;19929;-75
2024/02/11 08:08:29;;;;;;;;;;;;;;;;;;5048756;28;20011;-75
2024/02/11 08:10:56;;;;;;;;;;;;;;;;;;5048600;28;20033;-74
2024/02/11 08:13:23;;;;;;;;;;;;;;;;;;5048143;28;20032;-75
2024/02/11 08:15:50;;;;;;;;;;;;;;;;;;5045628;28;19929;-74
2024/02/11 08:18:18;;;;;;;;;;;;;;;;;;5057535;28;19947;-72
2024/02/11 08:20:45;;;;;;;;;;;;;;;;;;5049115;28;19935;-73
2024/02/11 08:23:12;;;;;;;;;;;;;;;;;;5048566;28;20434;-73
2024/02/11 08:25:39;;;;;;;;;;;;;;;;;;5045315;28;19939;-73
2024/02/11 08:28:06;;;;;;;;;;;;;;;;;;5047662;28;20412;-73
2024/02/11 08:30:33;;;;;;;;;;;;;;;;;;5048806;28;20012;-74
2024/02/11 08:33:00;;;;;;;;;;;;;;;;;;5051240;28;19979;-72
2024/02/11 08:35:27;;;;;;;;;;;;;;;;;;5049157;28;20833;-72
2024/02/11 08:37:55;;;;;;;;;;;;;;;;;;5048137;28;19925;-72
2024/02/11 08:40:22;;;;;;;;;;;;;;;;;;5047512;28;20354;-73
2024/02/11 08:42:50;;;;;;;;;;;;;;;;;;5047506;28;20031;-72
2024/02/11 08:45:17;;;;;;;;;;;;;;;;;;5046985;28;19932;-73
2024/02/11 08:47:44;;;;;;;;;;;;;;;;;;5047717;28;19935;-73
2024/02/11 08:50:11;;;;;;;;;;;;;;;;;;5052169;28;19933;-73
2024/02/11 08:52:39;;;;;;;;;;;;;;;;;;5047817;28;19929;-72
2024/02/11 08:55:06;;;;;;;;;;;;;;;;;;5047390;28;19928;-73
2024/02/11 08:57:33;;;;;;;;;;;;;;;;;;5048772;28;19998;-73
2024/02/11 09:00:00;;;;;;;;;;;;;;;;;;5041531;28;19991;-71
2024/02/11 09:02:28;;;;;;;;;;;;;;;;;;5045117;28;20321;-73
2024/02/11 09:04:55;;;;;;;;;;;;;;;;;;5041118;28;20043;-72
2024/02/11 09:07:22;;;;;;;;;;;;;;;;;;5037247;28;19940;-71
2024/02/11 09:09:51;;;;;;;;;;;;;;;;;;5042086;28;22490;-72
2024/02/11 09:12:18;;;;;;;;;;;;;;;;;;5047607;28;19935;-71
2024/02/11 09:14:47;;;;;;;;;;;;;;;;;;5047583;28;19929;-73
2024/02/11 09:17:14;;;;;;;;;;;;;;;;;;5046788;28;20002;-73
2024/02/11 09:19:41;;;;;;;;;;;;;;;;;;5042174;28;19929;-74
2024/02/11 09:22:08;;;;;;;;;;;;;;;;;;5042671;28;20392;-73
2024/02/11 09:24:38;;;;;;;;;;;;;;;;;;5046431;28;19950;-71
2024/02/11 09:27:07;;;;;;;;;;;;;;;;;;5041925;28;19933;-72
2024/02/11 09:29:34;;;;;;;;;;;;;;;;;;5044154;28;19929;-72
2024/02/11 09:32:03;;;;;;;;;;;;;;;;;;5040895;28;20380;-69
2024/02/11 09:34:30;;;;;;;;;;;;;;;;;;5046963;28;19928;-72
2024/02/11 09:36:57;;;;;;;;;;;;;;;;;;5045691;28;19960;-73
2024/02/11 09:39:23;;;;;;;;;;;;;;;;;;5042329;28;20059;-71
2024/02/11 09:41:50;;;;;;;;;;;;;;;;;;5045765;28;20396;-71
2024/02/11 09:44:22;;;;;;;;;;;;;;;;;;5038758;28;19928;-72
2024/02/11 09:46:49;;;;;;;;;;;;;;;;;;5041963;28;20041;-72
2024/02/11 09:49:16;;;;;;;;;;;;;;;;;;5042624;28;19936;-71
2024/02/11 09:51:44;;;;;;;;;;;;;;;;;;5055284;28;20027;-71
2024/02/11 09:54:11;;;;;;;;;;;;;;;;;;5052527;28;19928;-71
2024/02/11 09:56:38;;;;;;;;;;;;;;;;;;5040063;28;19987;-71
2024/02/11 09:59:05;;;;;;;;;;;;;;;;;;5048456;28;19929;-71
2024/02/11 10:01:33;;;;;;;;;;;;;;;;;;5049592;28;20408;-70
2024/02/11 10:03:59;;;;;;;;;;;;;;;;;;5055088;28;19933;-71
2024/02/11 10:06:26;;;;;;;;;;;;;;;;;;5050382;28;19971;-71
2024/02/11 10:08:54;;;;;;;;;;;;;;;;;;5037159;28;19940;-71
2024/02/11 10:11:23;;;;;;;;;;;;;;;;;;5045051;28;19929;-71
2024/02/11 10:13:59;;;;;;;;;;;;;;;;;;5050547;28;19933;-71
2024/02/11 10:16:26;;;;;;;;;;;;;;;;;;5041116;28;19935;-72
2024/02/11 10:18:53;;;;;;;;;;;;;;;;;;5045722;28;20036;-71
2024/02/11 10:21:20;;;;;;;;;;;;;;;;;;5053920;28;19950;-80
2024/02/11 10:23:47;;;;;;;;;;;;;;;;;;5052098;28;20395;-73
2024/02/11 10:26:14;;;;;;;;;;;;;;;;;;5049016;28;19968;-72
2024/02/11 10:28:41;;;;;;;;;;;;;;;;;;5050078;28;20022;-73
2024/02/11 10:31:08;;;;;;;;;;;;;;;;;;5043733;28;20269;-73
2024/02/11 10:33:36;;;;;;;;;;;;;;;;;;5047633;28;20019;-72
2024/02/11 10:36:03;;;;;;;;;;;;;;;;;;5056848;28;20039;-72
2024/02/11 10:38:30;;;;;;;;;;;;;;;;;;5050474;28;20009;-72
2024/02/11 10:40:58;;;;;;;;;;;;;;;;;;5040196;28;20019;-72
2024/02/11 10:43:26;;;;;;;;;;;;;;;;;;5043967;28;19929;-72
2024/02/11 10:45:55;;;;;;;;;;;;;;;;;;5044706;28;19979;-72
2024/02/11 10:48:22;;;;;;;;;;;;;;;;;;5051830;28;19951;-72
2024/02/11 10:50:49;;;;;;;;;;;;;;;;;;5045813;28;20388;-72
2024/02/11 10:53:17;;;;;;;;;;;;;;;;;;5044648;28;19968;-72
2024/02/11 10:55:45;;;;;;;;;;;;;;;;;;5043664;28;19940;-73
2024/02/11 10:58:13;;;;;;;;;;;;;;;;;;5044998;28;19929;-73
2024/02/11 11:00:41;;;;;;;;;;;;;;;;;;5043610;28;19932;-73
2024/02/11 11:03:09;;;;;;;;;;;;;;;;;;5046134;28;20027;-71
2024/02/11 11:05:35;;;;;;;;;;;;;;;;;;5047832;28;19935;-72
2024/02/11 11:08:02;;;;;;;;;;;;;;;;;;5043328;28;19928;-72
2024/02/11 11:10:29;;;;;;;;;;;;;;;;;;5046181;28;20348;-72
2024/02/11 11:12:56;;;;;;;;;;;;;;;;;;5043375;28;19928;-73
2024/02/11 11:15:24;;;;;;;;;;;;;;;;;;5045080;28;19933;-73
2024/02/11 11:17:51;;;;;;;;;;;;;;;;;;5046761;28;20299;-73
2024/02/11 11:20:18;;;;;;;;;;;;;;;;;;5045779;28;19928;-73
2024/02/11 11:22:45;;;;;;;;;;;;;;;;;;5049517;28;19933;-73
2024/02/11 11:25:12;;;;;;;;;;;;;;;;;;5049426;28;19929;-72
2024/02/11 11:27:39;;;;;;;;;;;;;;;;;;5045402;28;19972;-72
2024/02/11 11:30:07;;;;;;;;;;;;;;;;;;5047544;28;20002;-72
2024/02/11 11:32:34;;;;;;;;;;;;;;;;;;5038033;28;19935;-73
2024/02/11 11:35:03;;;;;;;;;;;;;;;;;;5046027;28;19929;-73
2024/02/11 11:37:30;;;;;;;;;;;;;;;;;;5043397;28;20015;-73
2024/02/11 11:39:58;;;;;;;;;;;;;;;;;;5047172;28;19933;-72
2024/02/11 11:42:25;;;;;;;;;;;;;;;;;;5047965;28;19940;-74
2024/02/11 11:44:52;;;;;;;;;;;;;;;;;;5036672;28;20400;-73
2024/02/11 11:47:20;;;;;;;;;;;;;;;;;;5037381;28;19968;-73
2024/02/11 11:49:47;;;;;;;;;;;;;;;;;;5041116;28;19929;-73
2024/02/11 11:52:14;;;;;;;;;;;;;;;;;;5037132;28;19933;-73
2024/02/11 11:54:41;;;;;;;;;;;;;;;;;;5048479;28;20327;-73
2024/02/11 11:57:08;;;;;;;;;;;;;;;;;;5042291;28;19929;-73
2024/02/11 11:59:35;;;;;;;;;;;;;;;;;;5045962;28;20027;-72
2024/02/11 12:02:02;;;;;;;;;;;;;;;;;;5041048;28;20395;-72
2024/02/11 12:04:32;;;;;;;;;;;;;;;;;;5032271;28;19929;-72
2024/02/11 12:06:59;;;;;;;;;;;;;;;;;;5037653;28;19965;-71
2024/02/11 12:09:26;;;;;;;;;;;;;;;;;;5037394;28;19935;-72
2024/02/11 12:11:53;;;;;;;;;;;;;;;;;;5040653;28;19955;-73
2024/02/11 12:14:20;;;;;;;;;;;;;;;;;;5044226;28;19933;-72
2024/02/11 12:16:48;;;;;;;;;;;;;;;;;;5041101;28;20461;-72
2024/02/11 12:19:15;;;;;;;;;;;;;;;;;;5026852;28;20038;-72
2024/02/11 12:21:42;;;;;;;;;;;;;;;;;;5037930;28;20372;-72
2024/02/11 12:24:09;;;;;;;;;;;;;;;;;;5030510;28;20020;-71
2024/02/11 12:26:37;;;;;;;;;;;;;;;;;;5040548;28;19951;-71
2024/02/11 12:29:04;;;;;;;;;;;;;;;;;;5045281;28;19936;-71
2024/02/11 12:31:32;;;;;;;;;;;;;;;;;;5045564;28;20015;-71
2024/02/11 12:33:59;;;;;;;;;;;;;;;;;;5044446;28;20027;-71
2024/02/11 12:36:26;;;;;;;;;;;;;;;;;;5041426;28;19939;-71
2024/02/11 12:38:53;;;;;;;;;;;;;;;;;;5039581;28;19929;-72
2024/02/11 12:41:22;;;;;;;;;;;;;;;;;;5041293;28;19928;-72
2024/02/11 12:43:49;;;;;;;;;;;;;;;;;;5042990;28;19936;-72
2024/02/11 12:46:16;;;;;;;;;;;;;;;;;;5043126;28;19929;-72
2024/02/11 12:48:43;;;;;;;;;;;;;;;;;;5045994;28;20015;-71
2024/02/11 12:51:11;;;;;;;;;;;;;;;;;;5041535;28;20404;-71
2024/02/11 12:53:38;;;;;;;;;;;;;;;;;;5038755;28;20038;-71
2024/02/11 12:56:05;;;;;;;;;;;;;;;;;;5038570;28;20023;-72
2024/02/11 12:58:32;;;;;;;;;;;;;;;;;;5037635;28;19936;-73
2024/02/11 13:00:59;;;;;;;;;;;;;;;;;;5044925;28;20352;-72
2024/02/11 13:03:26;;;;;;;;;;;;;;;;;;5035081;28;20021;-73
2024/02/11 13:05:53;;;;;;;;;;;;;;;;;;5036552;28;19964;-72
2024/02/11 13:08:20;;;;;;;;;;;;;;;;;;5051296;28;19930;-74
2024/02/11 13:10:47;;;;;;;;;;;;;;;;;;5048103;28;19971;-72
2024/02/11 13:13:16;;;;;;;;;;;;;;;;;;5056601;28;20385;-72
2024/02/11 13:15:44;;;;;;;;;;;;;;;;;;5045714;28;19933;-72
2024/02/11 13:18:14;;;;;;;;;;;;;;;;;;5038758;28;19968;-72
2024/02/11 13:20:42;;;;;;;;;;;;;;;;;;5040580;28;19940;-71
2024/02/11 13:23:09;;;;;;;;;;;;;;;;;;5044280;28;20383;-72
2024/02/11 13:25:37;;;;;;;;;;;;;;;;;;5048069;28;19948;-72
2024/02/11 13:28:04;;;;;;;;;;;;;;;;;;5042933;28;19935;-71
2024/02/11 13:30:31;;;;;;;;;;;;;;;;;;5043093;28;19928;-71
2024/02/11 13:32:58;;;;;;;;;;;;;;;;;;5047140;28;19928;-71
2024/02/11 13:35:25;;;;;;;;;;;;;;;;;;5051753;28;20027;-72
2024/02/11 13:37:52;;;;;;;;;;;;;;;;;;5058950;28;20057;-72
2024/02/11 13:40:19;;;;;;;;;;;;;;;;;;5046972;28;19929;-71
2024/02/11 13:42:47;;;;;;;;;;;;;;;;;;5047532;28;19944;-73
2024/02/11 13:45:14;;;;;;;;;;;;;;;;;;5051580;28;20399;-73
2024/02/11 13:47:41;;;;;;;;;;;;;;;;;;5046308;28;19936;-72
2024/02/11 13:50:08;;;;;;;;;;;;;;;;;;5047480;28;19932;-72
2024/02/11 13:52:36;;;;;;;;;;;;;;;;;;5043076;28;19937;-73
2024/02/11 13:55:05;;;;;;;;;;;;;;;;;;5049536;28;19928;-72
2024/02/11 13:57:32;;;;;;;;;;;;;;;;;;5048876;28;19964;-73
2024/02/11 13:59:59;;;;;;;;;;;;;;;;;;5047406;28;19952;-72
2024/02/11 14:02:27;;;;;;;;;;;;;;;;;;5050538;28;20048;-72
2024/02/11 14:04:54;;;;;;;;;;;;;;;;;;5047532;28;20281;-67
2024/02/11 14:07:23;;;;;;;;;;;;;;;;;;5051086;28;19936;-67
2024/02/11 14:09:50;;;;;;;;;;;;;;;;;;5050945;28;19936;-67
2024/02/11 14:12:17;;;;;;;;;;;;;;;;;;5050760;28;20450;-67
2024/02/11 14:14:44;;;;;;;;;;;;;;;;;;5051117;28;19993;-67
2024/02/11 14:17:12;;;;;;;;;;;;;;;;;;5050749;28;19935;-67
2024/02/11 14:19:39;;;;;;;;;;;;;;;;;;5053482;28;20312;-67
2024/02/11 14:22:08;;;;;;;;;;;;;;;;;;5045258;28;19932;-67
2024/02/11 14:24:35;;;;;;;;;;;;;;;;;;5051414;28;20296;-66
2024/02/11 14:27:03;;;;;;;;;;;;;;;;;;5050668;28;20019;-67
2024/02/11 14:29:30;;;;;;;;;;;;;;;;;;5050774;28;19929;-66
2024/02/11 14:31:57;;;;;;;;;;;;;;;;;;5051167;28;19935;-66
2024/02/11 14:34:24;;;;;;;;;;;;;;;;;;5049864;28;19939;-67
2024/02/11 14:36:54;;;;;;;;;;;;;;;;;;5051483;28;20391;-68
2024/02/11 14:39:21;;;;;;;;;;;;;;;;;;5045557;28;19960;-67
2024/02/11 14:41:49;;;;;;;;;;;;;;;;;;5050013;28;19951;-67
2024/02/11 14:44:17;;;;;;;;;;;;;;;;;;5050141;28;19929;-67
2024/02/11 14:46:45;;;;;;;;;;;;;;;;;;5050608;28;19929;-67
2024/02/11 14:49:12;;;;;;;;;;;;;;;;;;5050315;28;19935;-66
2024/02/11 14:51:39;;;;;;;;;;;;;;;;;;5052173;28;19936;-67
2024/02/11 14:54:06;;;;;;;;;;;;;;;;;;5042828;28;19932;-67
2024/02/11 14:56:36;;;;;;;;;;;;;;;;;;5045767;28;20007;-67
2024/02/11 14:59:03;;;;;;;;;;;;;;;;;;5049916;28;20043;-67
2024/02/11 15:01:30;;;;;;;;;;;;;;;;;;5045411;28;19929;-68
2024/02/11 15:03:57;;;;;;;;;;;;;;;;;;5048805;28;20011;-68
2024/02/11 15:06:24;;;;;;;;;;;;;;;;;;5042407;28;19929;-67
2024/02/11 15:08:52;;;;;;;;;;;;;;;;;;5048766;28;19929;-67
2024/02/11 15:11:20;;;;;;;;;;;;;;;;;;5049682;28;19963;-67
2024/02/11 15:13:49;;;;;;;;;;;;;;;;;;5048807;28;19933;-67
2024/02/11 15:16:16;;;;;;;;;;;;;;;;;;5048948;28;20879;-67
2024/02/11 15:18:43;;;;;;;;;;;;;;;;;;5049302;28;19929;-67
2024/02/11 15:21:10;;;;;;;;;;;;;;;;;;5049727;28;20015;-67
2024/02/11 15:23:37;;;;;;;;;;;;;;;;;;5049819;28;19935;-67
2024/02/11 15:26:04;;;;;;;;;;;;;;;;;;5054448;28;20032;-67
2024/02/11 15:28:32;;;;;;;;;;;;;;;;;;5049622;28;20078;-68
2024/02/11 15:30:59;;;;;;;;;;;;;;;;;;5048763;28;20414;-68
2024/02/11 15:33:26;;;;;;;;;;;;;;;;;;5049840;28;19966;-67
2024/02/11 15:35:54;;;;;;;;;;;;;;;;;;5049161;28;19936;-68
2024/02/11 15:38:21;;;;;;;;;;;;;;;;;;5048948;28;19929;-67
2024/02/11 15:40:48;;;;;;;;;;;;;;;;;;5049797;28;19935;-67
2024/02/11 15:43:15;;;;;;;;;;;;;;;;;;5050075;28;20423;-67
2024/02/11 15:45:42;;;;;;;;;;;;;;;;;;5049635;28;20020;-67
2024/02/11 15:48:09;;;;;;;;;;;;;;;;;;5049284;28;19928;-68
2024/02/11 15:50:37;;;;;;;;;;;;;;;;;;5048644;28;19928;-67
2024/02/11 15:53:04;;;;;;;;;;;;;;;;;;5049132;28;20334;-68
2024/02/11 15:55:30;;;;;;;;;;;;;;;;;;5048971;28;20028;-67
2024/02/11 15:57:57;;;;;;;;;;;;;;;;;;5048289;28;20048;-67
2024/02/11 16:00:24;;;;;;;;;;;;;;;;;;5056481;28;19928;-68
2024/02/11 16:02:52;;;;;;;;;;;;;;;;;;5049100;28;20296;-67
2024/02/11 16:05:19;;;;;;;;;;;;;;;;;;5047026;28;19940;-67
2024/02/11 16:07:46;;;;;;;;;;;;;;;;;;5044185;28;20338;-66
2024/02/11 16:10:14;;;;;;;;;;;;;;;;;;5045121;28;20034;-68
2024/02/11 16:12:41;;;;;;;;;;;;;;;;;;5046188;28;19925;-67
2024/02/11 16:15:08;;;;;;;;;;;;;;;;;;5046903;28;20032;-66
2024/02/11 16:17:37;;;;;;;;;;;;;;;;;;5041949;28;20031;-67
2024/02/11 16:20:05;;;;;;;;;;;;;;;;;;5044312;28;20399;-67
2024/02/11 16:22:32;;;;;;;;;;;;;;;;;;5043297;28;20307;-67
2024/02/11 16:24:59;;;;;;;;;;;;;;;;;;5055462;28;19929;-67
2024/02/11 16:27:26;;;;;;;;;;;;;;;;;;5044135;28;20020;-67
2024/02/11 16:29:53;;;;;;;;;;;;;;;;;;5039885;28;19929;-68
2024/02/11 16:32:21;;;;;;;;;;;;;;;;;;5033794;28;20001;-67
2024/02/11 16:34:48;;;;;;;;;;;;;;;;;;5041892;28;20034;-68
2024/02/11 16:37:15;;;;;;;;;;;;;;;;;;5045832;28;20391;-67
2024/02/11 16:39:43;;;;;;;;;;;;;;;;;;5040510;28;20403;-67
2024/02/11 16:42:10;;;;;;;;;;;;;;;;;;5043834;28;19929;-68
2024/02/11 16:44:37;;;;;;;;;;;;;;;;;;5046683;28;19933;-67
2024/02/11 16:47:05;;;;;;;;;;;;;;;;;;5039794;28;19936;-67